Nearby METAR Reports

METAR is the scheduled surface weather observation taken hourly at civil and military airport locations.

METAR is an acronym from the French language and roughly translates as Aviation Routine Weather Report.

 

EGPL - Benbecula Island, United Kingdom
Distance from station: WNW 41mi, 66km
Updated: 17/08/2017 04:50
Partly cloudy
Partly cloudy
 Wind from S
Wind: S 29 mph , 46 km/h
Temperature: 14°C
Dew Point: 12°C
Humidity: 88%
Barometer: 997 hPa
Clouds: Partly cloudy
Visibility: 6 miles , 9 km
Cloud details: Partly cloudy 518 m
Partly cloudy 671 m
2017/08/17 03:50 EGPL 170350Z 19025KT 9000 SCT017 SCT022 14/12 Q0997
EGPU - Tiree Island, United Kingdom
Distance from station: SSW 56mi, 90km
Updated: 17/08/2017 04:20
Partly cloudy
Partly cloudy
 Wind from varies
Wind: varies 21 mph , 33 km/h
Temperature: 14°C
Dew Point: 13°C
Humidity: 94%
Barometer: 1000 hPa
Clouds: Partly cloudy
Visibility: 6 miles , 10 km
Cloud details: Partly cloudy 518 m
2017/08/17 03:20 EGPU 170320Z AUTO VRB18KT 9999 SCT017/// 14/13 Q1000
 
EGEO - Oban Airport, United Kingdom
Distance from station: SE 65mi, 105km
Updated: 16/08/2017 16:20
NOT Current
Light drizzle, Overcast
Light drizzle, Overcast
 Wind from S
Wind: S 16 mph , 26 km/h
Temperature: 15°C
Dew Point: 13°C
Humidity: 88%
Barometer: 1005 hPa
Summary: Light Drizzle
Clouds: Overcast
Visibility: 4 miles , 6 km
Cloud details: Few Clouds 488 m
Overcast 579 m
2017/08/16 15:20 EGEO 161520Z 17014KT 6000 -DZ FEW016 OVC019 15/13 Q1005
EGPO - Stornoway, United Kingdom
Distance from station: 0 66mi, 106km
Updated: 17/08/2017 04:50
Few Clouds
Few Clouds
 Wind from S
Wind: S 21 mph , 33 km/h
Temperature: 14°C
Dew Point: 14°C
Humidity: 100%
Barometer: 997 hPa
Clouds: Few Clouds
Visibility: 6 miles , 9 km
Cloud details: Few Clouds 488 m
2017/08/17 03:50 EGPO 170350Z AUTO 19018KT 9000 FEW016/// 14/14 Q0997
 
EGPE - Inverness/Dalcro, United Kingdom
Distance from station: ENE 88mi, 141km
Updated: 17/08/2017 04:50
Few Clouds
Few Clouds
 Wind from SSW
Wind: SSW 10 mph , 17 km/h
Temperature: 13°C
Dew Point: 10°C
Humidity: 82%
Barometer: 1001 hPa
Clouds: Few Clouds
Visibility: 6 miles , 10 km
Cloud details: Few Clouds 1372 m
2017/08/17 03:50 EGPE 170350Z 20009KT 9999 FEW045 13/10 Q1001
EGQA - Tain Range (saws, United Kingdom
Distance from station: ENE 97mi, 156km
Updated: 16/08/2017 14:50
NOT Current
Mostly cloudy
Mostly cloudy
 Wind from SSE
Wind: SSE 17 mph , 28 km/h
Clouds: Mostly cloudy
Visibility: 6 miles , 10 km
Cloud details: Few Clouds 914 m
Mostly cloudy 2438 m
2017/08/16 13:50 EGQA 161350Z 16015KT 9999 FEW030 BKN080 17/// Q1007 BLU
 
EGQK - Kinloss Raf, United Kingdom
Distance from station: ENE 107mi, 171km
Updated: 17/08/2017 03:50
Mostly cloudy
Mostly cloudy
 Wind from SW
Wind: SW 6 mph , 9 km/h
Temperature: 13°C
Dew Point: 11°C
Humidity: 88%
Barometer: 1001 hPa
Clouds: Mostly cloudy
Visibility: 6 miles , 10 km
Cloud details: Few Clouds 1829 m
Mostly cloudy 7010 m
2017/08/17 02:50 EGQK 170250Z AUTO 22005KT 9999 FEW060/// BKN230/// 13/11 Q1001
EGPI - Islay/Port Ellen, United Kingdom
Distance from station: S 110mi, 177km
Updated: 17/08/2017 04:20
Clear
Clear
 Wind from SE
Wind: SE 8 mph , 13 km/h
Temperature: 11°C
Dew Point: 10°C
Humidity: 94%
Barometer: 1003 hPa
Clouds: Clear
Visibility: 6 miles , 10 km
2017/08/17 03:20 EGPI 170320Z AUTO 13007KT 9999 NCD 11/10 Q1003
 
EGQS - Lossiemouth Raf, United Kingdom
Distance from station: ENE 117mi, 188km
Updated: 17/08/2017 03:50
Clear
Clear
 Wind from SW
Wind: SW 6 mph , 9 km/h
Temperature: 14°C
Dew Point: 11°C
Humidity: 82%
Barometer: 1001 hPa
Summary: Clear
Visibility: greater than 7 miles , 10 km
2017/08/17 02:50 EGQS 170250Z 23005KT CAVOK 14/11 Q1001 BLU
EGPF - Glasgow Airport, United Kingdom
Distance from station: SE 121mi, 195km
Updated: 17/08/2017 04:50
Clear
Clear
 Wind from varies
Wind: varies 2 mph , 4 km/h
Temperature: 10°C
Dew Point: 9°C
Humidity: 94%
Barometer: 1004 hPa
Clouds: Clear
Visibility: 6 miles , 10 km
2017/08/17 03:50 EGPF 170350Z AUTO VRB02KT 9999 NCD 10/09 Q1004
 
EGEC - Campbeltown, United Kingdom
Distance from station: SSE 129mi, 207km
Updated: 16/08/2017 17:20
NOT Current
Mostly cloudy
Mostly cloudy
 Wind from S
Wind: S 29 mph , 46 km/h, Gust: 40 mph , 65 km/h
Temperature: 16°C
Dew Point: 15°C
Humidity: 94%
Barometer: 1004 hPa
Clouds: Mostly cloudy
Visibility: 6 miles , 10 km
Cloud details: Mostly cloudy 213 m
2017/08/16 16:20 EGEC 161620Z 17025G35KT 9999 BKN007 16/15 Q1004
EGPN - Dundee/Riverside, United Kingdom
Distance from station: ESE 137mi, 221km
Updated: 16/08/2017 20:20
NOT Current
Light rain, Showers, Mostly cloudy
Light rain, Showers, Mostly cloudy
 Wind from varies
Wind: varies 3 mph , 6 km/h
Temperature: 16°C
Dew Point: 14°C
Humidity: 88%
Barometer: 1007 hPa
Summary: Light rain, Showers
Clouds: Mostly cloudy
Visibility: 6 miles , 10 km
Cloud details: Few Clouds 457 m
Mostly cloudy 853 m
2017/08/16 19:20 EGPN 161920Z VRB03KT 9999 -SHRA FEW015 BKN028 16/14 Q1007
 
EGPK - Prestwick(Civ/Na, United Kingdom
Distance from station: SSE 139mi, 224km
Updated: 17/08/2017 04:50
Partly cloudy
Partly cloudy
 Wind from varies
Wind: varies 3 mph , 6 km/h
Temperature: 12°C
Dew Point: 11°C
Humidity: 94%
Barometer: 1004 hPa
Clouds: Partly cloudy
Visibility: 6 miles , 10 km
Cloud details: Partly cloudy 610 m
2017/08/17 03:50 EGPK 170350Z VRB03KT 9999 SCT020 12/11 Q1004
EGQL - Leuchars Raf, United Kingdom
Distance from station: ESE 145mi, 233km
Updated: 17/08/2017 03:50
Light rain, Mostly cloudy
Light rain, Mostly cloudy
 Wind from SW
Wind: SW 14 mph , 22 km/h
Temperature: 16°C
Dew Point: 15°C
Humidity: 94%
Barometer: 1002 hPa
Summary: Light rain
Clouds: Mostly cloudy
Visibility: 6 miles , 10 km
Cloud details: Mostly cloudy 1524 m
2017/08/17 02:50 EGQL 170250Z 22012KT 9999 -RA BKN050 16/15 Q1002 BLU
 
EGPH - Edinburgh Airpor, United Kingdom
Distance from station: SE 145mi, 234km
Updated: 17/08/2017 04:50
Clear
Clear
 Wind from WSW
Wind: WSW 9 mph , 15 km/h
Temperature: 13°C
Dew Point: 11°C
Humidity: 88%
Barometer: 1004 hPa
Summary: Clear
Visibility: greater than 7 miles , 10 km
2017/08/17 03:50 EGPH 170350Z 24008KT CAVOK 13/11 Q1004
EGPC - Wick, United Kingdom
Distance from station: NE 146mi, 234km
Updated: 17/08/2017 04:50
Clear
Clear
 Wind from S
Wind: S 8 mph , 13 km/h
Temperature: 14°C
Dew Point: 13°C
Humidity: 94%
Barometer: 1000 hPa
Clouds: Clear
Visibility: 6 miles , 10 km
2017/08/17 03:50 EGPC 170350Z AUTO 18007KT 9999 NCD 14/13 Q1000

-

free counters
QR Code Twitter Scottish Weather Network UK Weather Network
Argyll House B & B

Argyll House B & B is situated in North West Skye and is the perfect base to see all that the Isle of Skye has to offer.
Bookings been taken for 2017.